Lake Bridgeport, Texas
Current Conditions -  °F | °C
As of 3:55 PM on Monday 22 Dec 2014 (Local Time) from KXBP Reporting Station
Clear Clear  
Wind Chill: 15°   Ceiling: Unl
Heat Index: 15°   Visibility: 10mi
Dew Point:   Wind: 12mph
Humidity: 60%   Direction: 310°NW
Pressure: 29.65"   Gusts: 16mph
Location:  33.1691°N, 97.8246°W
Report Text: KXBP 222155Z AUTO 31010G14KT 10SM CLR 15/07 A2965 RMK AO2 T01480070
Loading
Personal Weather Stations






























Interactive Weather Map New forecast layout! Learn more

10-Day Weather Forecast

Advertisements
Track Severe Weather on mobile